• Join FlightAware (Why Join?)
  • Login
  • US Flag 
07:43AM EDT


 

Airport Tracker/Info


-or-


 

Live Flight TrackerFlight Track Log ✈ CCA4394 ✈ 03-Aug-2014 ✈ ZGGG / CAN - ZUJZ / JZH

Flight Track Log - Related Links

Times and Time Zones

All times are in EDT time to prevent confusion due to time zone crossing. See the CCA4394 flight status page for this flight to view local times or setup timezone preferences in your user account.

Time Position Orientation Groundspeed Altitude Reporting Facility
EDT Latitude Longitude Course Direction KTS MPH feet Rate Location/Type
01:26AM 24.2173 112.5468 320° Northwest  Level Estimated
01:27AM 24.2921 112.4780 320° Northwest  Level Estimated
01:28AM 24.3668 112.4090 320° Northwest  Level Estimated
01:29AM 24.4416 112.3400 320° Northwest  Level Estimated
01:30AM 24.5163 112.2709 320° Northwest  Level Estimated
01:31AM 24.5910 112.2018 320° Northwest  Level Estimated
01:32AM 24.6656 112.1325 320° Northwest  Level Estimated
01:33AM 24.7402 112.0632 320° Northwest  Level Estimated
01:34AM 24.8148 111.9938 320° Northwest  Level Estimated
01:35AM 24.8893 111.9243 320° Northwest  Level Estimated
01:36AM 24.9639 111.8547 320° Northwest  Level Estimated
01:37AM 25.0383 111.7850 320° Northwest  Level Estimated
01:38AM 25.1128 111.7153 320° Northwest  Level Estimated
01:39AM 25.1872 111.6454 320° Northwest  Level Estimated
01:40AM 25.2616 111.5755 320° Northwest  Level Estimated
01:41AM 25.3359 111.5055 320° Northwest  Level Estimated
01:42AM 25.4103 111.4354 320° Northwest  Level Estimated
01:43AM 25.4846 111.3652 320° Northwest  Level Estimated
01:44AM 25.5588 111.2950 320° Northwest  Level Estimated
01:45AM 25.6330 111.2246 319° Northwest  Level Estimated
01:46AM 25.7072 111.1542 319° Northwest  Level Estimated
01:47AM 25.7814 111.0836 319° Northwest  Level Estimated
01:48AM 25.8555 111.0130 319° Northwest  Level Estimated
01:49AM 25.9296 110.9423 319° Northwest  Level Estimated
01:50AM 26.0036 110.8715 319° Northwest  Level Estimated
01:51AM 26.0776 110.8006 319° Northwest  Level Estimated
01:52AM 26.1516 110.7296 319° Northwest  Level Estimated
01:53AM 26.2255 110.6586 319° Northwest  Level Estimated
01:54AM 26.2995 110.5874 319° Northwest  Level Estimated
01:55AM 26.3733 110.5162 319° Northwest  Level Estimated
01:56AM 26.4472 110.4448 319° Northwest  Level Estimated
01:57AM 26.5210 110.3734 319° Northwest  Level Estimated
01:58AM 26.5947 110.3019 319° Northwest  Level Estimated
01:59AM 26.6685 110.2303 319° Northwest  Level Estimated
02:00AM 26.7422 110.1586 319° Northwest  Level Estimated
02:01AM 26.8158 110.0868 319° Northwest  Level Estimated
02:02AM 26.8895 110.0149 319° Northwest  Level Estimated
02:03AM 26.9631 109.9429 319° Northwest  Level Estimated
02:04AM 27.0366 109.8708 319° Northwest  Level Estimated
02:05AM 27.1101 109.7986 319° Northwest  Level Estimated
02:06AM 27.1836 109.7264 319° Northwest  Level Estimated
02:07AM 27.2570 109.6540 319° Northwest  Level Estimated
02:08AM 27.3304 109.5815 319° Northwest  Level Estimated
02:09AM 27.4038 109.5090 319° Northwest  Level Estimated
02:10AM 27.4771 109.4363 319° Northwest  Level Estimated
02:11AM 27.5504 109.3636 319° Northwest  Level Estimated
02:12AM 27.6237 109.2907 319° Northwest  Level Estimated
02:13AM 27.6969 109.2178 319° Northwest  Level Estimated
02:14AM 27.7701 109.1448 319° Northwest  Level Estimated
02:15AM 27.8432 109.0716 319° Northwest  Level Estimated
02:16AM 27.9163 108.9984 318° Northwest  Level Estimated
02:17AM 27.9894 108.9250 318° Northwest  Level Estimated
02:18AM 28.0624 108.8516 318° Northwest  Level Estimated
02:19AM 28.1354 108.7781 318° Northwest  Level Estimated
02:20AM 28.2083 108.7044 318° Northwest  Level Estimated
02:21AM 28.2812 108.6307 318° Northwest  Level Estimated
02:22AM 28.3541 108.5568 318° Northwest  Level Estimated
02:23AM 28.4269 108.4829 318° Northwest  Level Estimated
02:24AM 28.4997 108.4089 318° Northwest  Level Estimated
02:25AM 28.5724 108.3347 318° Northwest  Level Estimated
02:26AM 28.6451 108.2605 318° Northwest  Level Estimated
02:27AM 28.7178 108.1861 318° Northwest  Level Estimated
02:28AM 28.7904 108.1117 318° Northwest  Level Estimated
02:29AM 28.8630 108.0371 318° Northwest  Level Estimated
02:30AM 28.9355 107.9624 318° Northwest  Level Estimated
02:31AM 29.0080 107.8877 318° Northwest  Level Estimated
02:32AM 29.0805 107.8128 318° Northwest  Level Estimated
02:33AM 29.1529 107.7378 318° Northwest  Level Estimated
02:34AM 29.2253 107.6628 318° Northwest  Level Estimated
02:35AM 29.2976 107.5876 318° Northwest  Level Estimated
02:36AM 29.3699 107.5123 318° Northwest  Level Estimated
02:37AM 29.4422 107.4369 318° Northwest  Level Estimated
02:38AM 29.5144 107.3614 318° Northwest  Level Estimated
02:39AM 29.5865 107.2857 318° Northwest  Level Estimated
02:40AM 29.6586 107.2100 318° Northwest  Level Estimated
02:41AM 29.7307 107.1342 318° Northwest  Level Estimated
02:42AM 29.8028 107.0582 318° Northwest  Level Estimated
02:43AM 29.8748 106.9822 318° Northwest  Level Estimated
02:44AM 29.9467 106.9060 317° Northwest  Level Estimated
02:45AM 30.0186 106.8298 317° Northwest  Level Estimated
02:46AM 30.0905 106.7534 317° Northwest  Level Estimated
02:47AM 30.1623 106.6769 317° Northwest  Level Estimated
02:48AM 30.2340 106.6003 317° Northwest  Level Estimated
02:49AM 30.3058 106.5236 317° Northwest  Level Estimated
02:50AM 30.3774 106.4467 317° Northwest  Level Estimated
02:51AM 30.4491 106.3698 317° Northwest  Level Estimated
02:52AM 30.5207 106.2927 317° Northwest  Level Estimated
02:53AM 30.5922 106.2156 317° Northwest  Level Estimated
02:54AM 30.6637 106.1383 317° Northwest  Level Estimated
02:55AM 30.7352 106.0609 317° Northwest  Level Estimated
02:56AM 30.8066 105.9834 317° Northwest  Level Estimated
02:57AM 30.8779 105.9057 317° Northwest  Level Estimated
02:58AM 30.9492 105.8280 317° Northwest  Level Estimated
02:59AM 31.0205 105.7501 317° Northwest  Level Estimated
03:00AM 31.0917 105.6722 317° Northwest  Level Estimated
03:01AM 31.1629 105.5941 317° Northwest  Level Estimated
03:02AM 31.2340 105.5159 317° Northwest  Level Estimated
03:03AM 31.3051 105.4375 317° Northwest  Level Estimated
03:04AM 31.3762 105.3591 317° Northwest  Level Estimated
03:05AM 31.4471 105.2805 317° Northwest  Level Estimated
03:06AM 31.5181 105.2018 317° Northwest  Level Estimated
03:07AM 31.5890 105.1230 317° Northwest  Level Estimated
03:08AM 31.6598 105.0441 317° Northwest  Level Estimated
03:09AM 31.7306 104.9651 316° Northwest  Level Estimated
03:10AM 31.8013 104.8859 316° Northwest  Level Estimated
03:11AM 31.8720 104.8066 316° Northwest  Level Estimated
03:12AM 31.9427 104.7272 316° Northwest  Level Estimated
03:13AM 32.0133 104.6477 316° Northwest  Level Estimated
03:14AM 32.0838 104.5680 316° Northwest  Level Estimated
03:15AM 32.1543 104.4883 316° Northwest  Level Estimated
03:16AM 32.2247 104.4083 316° Northwest  Level Estimated
03:17AM 32.2951 104.3283 316° Northwest  Level Estimated
03:18AM 32.3655 104.2482 316° Northwest  Level Estimated
03:19AM 32.4358 104.1679 316° Northwest  Level Estimated
03:20AM 32.5060 104.0875 316° Northwest  Level Estimated
03:21AM 32.5762 104.0070 316° Northwest  Level Estimated
03:22AM 32.6463 103.9264 316° Northwest  Level Estimated
03:23AM 32.7164 103.8456 316° Northwest  Level Estimated
03:24AM 32.7865 103.7647 316° Northwest  Level Estimated
03:25AM 32.8564 103.6836 316° Northwest  Level Estimated
03:26AM 32.8570 103.6830 316° Northwest  Level Estimated
03:27AM 32.8570 103.6830 North  Level Estimated
03:28AM 32.8570 103.6830 North  Level Estimated
03:29AM 32.8570 103.6830 North  Level Estimated
03:30AM 32.8570 103.6830 North  Level Estimated
03:31AM 32.8570 103.6830 North  Level Estimated